ADDS METAR Data INFO
IDs: Format: Raw Decoded Include TAF

Data at: 1156 UTC 25 Jun 2018

KDTO 251153Z 03011KT 10SM OVC049 21/18 A3004 RMK AO2 WSHFT 1040 RAE13 SLP162 P0000 60002 70002 T02110183 10289 20211 50055
KDTO 251100Z 35016G22KT 10SM -RA FEW024 BKN032 OVC047 21/19 A3005 RMK AO2 WSHFT 1040 P0000 T02110189
KDTO 251053Z 35016G25KT 10SM -RA BKN030 BKN042 OVC050 22/19 A3005 RMK AO2 PK WND 34030/1043 WSHFT 1035 RAB28 SLP164 P0002 T02170189
KDTO 251029Z AUTO 28008G17KT 10SM -RA BKN033 OVC044 27/21 A3002 RMK AO2 WSHFT 1009 RAB28 P0000 T02720211
KDTO 250953Z AUTO 19012KT 10SM OVC037 27/21 A2991 RMK AO2 SLP116 T02720211
KDTO 250853Z AUTO 19016KT 10SM OVC031 27/22 A2987 RMK AO2 SLP104 T02720217 53015
KDTO 250753Z AUTO 18016G23KT 10SM FEW031 27/21 A2984 RMK AO2 SLP095 T02720211
KDTO 250653Z AUTO 17017G27KT 10SM CLR 28/21 A2982 RMK AO2 PK WND 17029/0639 SLP087 T02830211
KDTO 250553Z AUTO 17018G25KT 10SM CLR 29/21 A2983 RMK AO2 PK WND 15026/0502 SLP089 T02890211 10356 20289 403720267 50004
KDTO 250453Z AUTO 16015G22KT 10SM CLR 30/21 A2984 RMK AO2 PK WND 15029/0411 SLP092 T03000206
KDTO 250353Z AUTO 15017G23KT 10SM CLR 31/19 A2983 RMK AO2 SLP089 T03110194
KDTO 250253Z AUTO 16012KT 10SM CLR 31/19 A2981 RMK AO2 PK WND 15027/0204 SLP085 T03110194 53002
KDTO 250153Z 15013KT 10SM CLR 33/19 A2980 RMK AO2 SLP080 T03280194
KDTO 250053Z 15016G21KT 10SM CLR 34/19 A2980 RMK AO2 SLP081 T03390194
KDTO 242353Z 13015G21KT 10SM CLR 36/20 A2981 RMK AO2 SLP083 T03560200 10372 20328 50013
KDTO 242253Z 13012KT 10SM SCT080 BKN100 36/20 A2981 RMK AO2 SLP083 T03610200
KDTO 242153Z 17015G18KT 10SM SCT070 37/20 A2982 RMK AO2 PK WND 16029/2054 SLP087 T03670200
KDTO 242053Z 15020G28KT 10SM CLR 37/20 A2977 RMK AO2 PK WND 16032/2035 SLP069 T03720200 56023
KDTO 241953Z 16020G29KT 10SM CLR 36/21 A2978 RMK AO2 PK WND 15029/1948 SLP072 T03560211
KDTO 241853Z 16018G28KT 10SM FEW044 34/22 A2981 RMK AO2 PK WND 15030/1759 SLP085 T03440217
KDTO 241753Z 18014G23KT 10SM FEW042 33/21 A2984 RMK AO2 SLP093 T03280211 10333 20272 58005
KDTO 241653Z 16017G23KT 10SM BKN039 33/22 A2985 RMK AO2 SLP096 T03280217
KDTO 241553Z 17015G22KT 10SM BKN036 31/22 A2986 RMK AO2 SLP101 T03060217
KDTO 241453Z 16017G23KT 10SM FEW033 29/22 A2985 RMK AO2 SLP098 T02940217 50015
KDTO 241353Z 14010KT 10SM OVC036 28/21 A2988 RMK AO2 SLP106 T02830211
KDTO 241253Z 18009KT 10SM OVC036 28/21 A2985 RMK AO2 SLP097 T02780211
KDTO 241153Z 19007G15KT 10SM BKN036 28/22 A2981 RMK AO2 PRESRR SLP083 T02780217 10300 20267 53042
KDTO 241053Z 17009KT 10SM SCT030 OVC037 27/22 A2976 RMK AO2 SLP068 T02720217
KDTO 240953Z AUTO 17013KT 10SM BKN028 27/22 A2971 RMK AO2 PK WND 15028/0917 SLP050 T02720217
KDTO 240932Z AUTO 16013G20KT 10SM OVC028 27/22 A2970 RMK AO2 PK WND 15028/0917 T02720217
KDTO 240915Z AUTO 16015G21KT 10SM BKN030 28/22 A2968 RMK AO2 T02780217
KDTO 240905Z AUTO 16018G25KT 10SM BKN029 28/22 A2968 RMK AO2 T02780217
KDTO 240853Z AUTO 16019KT 10SM SCT031 28/22 A2968 RMK AO2 SLP040 T02780217 55034
KDTO 240753Z AUTO 15015G24KT 10SM CLR 28/22 A2968 RMK AO2 PK WND 16034/0657 SLP040 T02780217
KDTO 240653Z AUTO 16025G37KT 10SM CLR 29/22 A2967 RMK AO2 PK WND 17038/0640 LTG DSNT S AND SW SLP035 T02890217
KDTO 240553Z AUTO 18022G28KT 10SM CLR 30/22 A2978 RMK AO2 PK WND 18028/0552 SLP075 T03000217 10344 20300 403610233 50020
KDTO 240453Z AUTO 17009KT 10SM CLR 30/21 A2980 RMK AO2 SLP079 T03000211
KDTO 240353Z AUTO 13012KT 10SM CLR 31/21 A2975 RMK AO2 SLP064 T03060211
KDTO 240253Z 13012KT 10SM CLR 31/21 A2973 RMK AO2 SLP056 T03110206 55000
KDTO 240153Z 13014KT 10SM CLR 31/21 A2971 RMK AO2 SLP051 T03110206
KDTO 240053Z 12012KT 10SM FEW075 33/21 A2972 RMK AO2 SLP054 T03280211